Scottsbluff, NE (69361)

8:47 PM MDT on July 28, 2016 (GMT -0600)
Scottsbluff Main St Mrkt | | Change Station

Elev 3881 ft 41.86 °N, 103.67 °W | Updated 7 minutes ago

Scattered Clouds
Scattered Clouds
73.0 °F
Feels Like 76 °F
N
6.0
Wind Variable Wind from WNW
Gusts 8.0 mph

Today
High -- | Low -- °F
--% Chance of Precip.
Yesterday
High -- | Low -- °F
Precip. -- in
Pressure 30.03 in
Visibility 10.0 miles
Clouds Scattered Clouds 6000 ft
Heat Index 76 °F
Dew Point 60 °F
Humidity 65%
Rainfall 0.20 in
Snow Depth Not available.
5:45 AM 8:16 PM
Waning Crescent, 26% visible
METAR KBFF 290153Z AUTO 10007KT 10SM SCT060 23/16 A3015 RMK AO2 SLP169 T02330161 $
Pressure 30.03 in
Visibility 10.0 miles
Clouds Scattered Clouds 6000 ft
Heat Index 76 °F
Dew Point 60 °F
Humidity 65%
Rainfall 0.20 in
Snow Depth Not available.
5:45 AM 8:16 PM
Waning Crescent, 26% visible
METAR KBFF 290153Z AUTO 10007KT 10SM SCT060 23/16 A3015 RMK AO2 SLP169 T02330161 $

10-Day Weather Forecast

Almanac

Astronomy

Jul. 28, 2016 Rise Set
Actual Time
Civil Twilight
Nautical Twilight
Astronomical Twilight
Moon
Length of Visible Light
Length of Day
Tomorrow will be .
, % of the Moon is Illuminated

Today's Extremes

State Highs State Lows

Community

WunderPhotos

Upload Photos

1,928,274 photos uploaded!

WunderBlog® & News

Nearby

Air Quality

  Air Quality AQ Index Pollutant
Not available.

Snow Depth

Station Depth Elevation

Earthquake Activity

City Distance Mag. Time & Date
Minimum magnitude displayed is 2.5.

Coastal Water Temperatures

Place Temperature

Stations

Nearby Weather Stations

Station Location Temp. Windchill Dew Point Humidity Wind Precip. Elev Updated Type
                   

Watches & Warnings

There are currently no watches in effect.